createdAt,value
2023-04-15T00:00:58.394Z,66.57
2023-04-15T00:03:25.388Z,67.80
2023-04-15T00:05:52.267Z,68.51
2023-04-15T00:08:19.459Z,68.93
2023-04-15T00:10:46.756Z,68.85
2023-04-15T00:13:13.378Z,68.23
2023-04-15T00:15:39.854Z,69.25
2023-04-15T00:18:07.412Z,69.84
2023-04-15T00:20:34.308Z,71.04
2023-04-15T00:23:02.568Z,71.34
2023-04-15T00:25:29.282Z,72.25
2023-04-15T00:27:55.682Z,72.29
2023-04-15T00:30:22.190Z,73.57
2023-04-15T00:32:49.537Z,73.75
2023-04-15T00:35:16.543Z,74.13
2023-04-15T00:37:45.482Z,74.50
2023-04-15T00:40:14.111Z,74.05
2023-04-15T00:42:40.894Z,73.93
2023-04-15T00:45:08.852Z,73.29
2023-04-15T00:47:37.697Z,71.22
2023-04-15T00:50:05.024Z,71.01
2023-04-15T00:52:32.040Z,71.12
2023-04-15T00:54:59.466Z,70.94
2023-04-15T00:57:26.144Z,71.81
2023-04-15T00:59:53.833Z,71.40
2023-04-15T01:02:20.789Z,71.54
2023-04-15T01:04:47.590Z,73.00
2023-04-15T01:07:14.177Z,73.41
2023-04-15T01:09:41.434Z,73.96
2023-04-15T01:12:12.041Z,74.39
2023-04-15T01:14:38.675Z,74.28
2023-04-15T01:17:05.099Z,74.04
2023-04-15T01:19:31.622Z,74.84
2023-04-15T01:21:58.163Z,74.12
2023-04-15T01:24:28.183Z,74.37
2023-04-15T01:26:54.836Z,74.39
2023-04-15T01:29:21.582Z,74.69
2023-04-15T01:31:52.442Z,75.73
2023-04-15T01:34:19.396Z,76.27
2023-04-15T01:36:46.257Z,76.85
2023-04-15T01:39:13.426Z,77.57
2023-04-15T01:41:40.805Z,78.01
2023-04-15T01:44:08.044Z,77.87
2023-04-15T01:46:34.976Z,78.56
2023-04-15T01:49:01.749Z,78.87
2023-04-15T01:51:28.405Z,78.94
2023-04-15T01:53:56.872Z,79.34
2023-04-15T01:56:26.649Z,80.18
2023-04-15T01:58:53.345Z,79.35
2023-04-15T02:01:20.094Z,80.06
2023-04-15T02:03:47.740Z,80.19
2023-04-15T02:06:14.462Z,80.17
2023-04-15T02:08:40.995Z,79.86
2023-04-15T02:11:07.574Z,80.11
2023-04-15T02:13:34.086Z,80.06
2023-04-15T02:16:00.542Z,80.04
2023-04-15T02:18:27.246Z,79.81
2023-04-15T02:20:53.702Z,79.91
2023-04-15T02:23:20.420Z,80.71
2023-04-15T02:25:53.792Z,80.30
2023-04-15T02:28:21.115Z,80.34
2023-04-15T02:30:52.764Z,79.94
2023-04-15T02:33:20.130Z,80.42
2023-04-15T02:35:46.648Z,80.66
2023-04-15T02:38:14.237Z,80.56
2023-04-15T02:40:40.942Z,80.54
2023-04-15T02:43:07.693Z,81.15
2023-04-15T02:45:34.284Z,81.14
2023-04-15T02:48:06.016Z,81.52
2023-04-15T02:50:32.588Z,81.33
2023-04-15T02:53:01.091Z,81.10
2023-04-15T02:55:27.772Z,81.23
2023-04-15T02:57:54.243Z,81.92
2023-04-15T03:00:20.644Z,82.16
2023-04-15T03:02:47.368Z,82.95
2023-04-15T03:05:14.749Z,82.05
2023-04-15T03:07:41.149Z,82.16
2023-04-15T03:10:08.337Z,82.42
2023-04-15T03:12:34.697Z,82.48
2023-04-15T03:15:02.083Z,82.86
2023-04-15T03:17:28.518Z,81.81
2023-04-15T03:19:54.956Z,82.54
2023-04-15T03:22:21.347Z,82.44
2023-04-15T03:24:47.872Z,82.96
2023-04-15T03:27:14.305Z,83.63
2023-04-15T03:29:41.106Z,83.00
2023-04-15T03:32:07.540Z,83.94
2023-04-15T03:34:33.919Z,83.88
2023-04-15T03:37:00.521Z,84.06
2023-04-15T03:39:27.243Z,84.31
2023-04-15T03:41:53.646Z,83.84
2023-04-15T03:44:20.030Z,84.68
2023-04-15T03:46:46.557Z,84.69
2023-04-15T03:49:14.008Z,84.14
2023-04-15T03:51:40.691Z,83.45
2023-04-15T03:54:07.120Z,84.53
2023-04-15T03:56:33.545Z,85.19
2023-04-15T03:59:00.145Z,84.95
2023-04-15T04:01:26.813Z,85.66
2023-04-15T04:03:53.424Z,85.66
2023-04-15T04:06:20.085Z,85.01
2023-04-15T04:08:46.497Z,85.28
2023-04-15T04:11:13.316Z,85.33
2023-04-15T04:13:40.546Z,85.18
2023-04-15T04:16:07.156Z,83.88
2023-04-15T04:18:33.658Z,83.74
2023-04-15T04:21:00.550Z,84.29
2023-04-15T04:23:27.030Z,84.45
2023-04-15T04:25:53.546Z,84.34
2023-04-15T04:28:19.981Z,84.28
2023-04-15T04:30:46.408Z,84.60
2023-04-15T04:33:13.025Z,84.65
2023-04-15T04:35:39.533Z,84.71
2023-04-15T04:38:05.953Z,84.85
2023-04-15T04:40:32.420Z,84.96
2023-04-15T04:42:58.866Z,84.82
2023-04-15T04:45:25.235Z,84.72
2023-04-15T04:47:51.674Z,85.54
2023-04-15T04:50:18.133Z,85.30
2023-04-15T04:52:44.560Z,85.06
2023-04-15T04:55:11.028Z,85.54
2023-04-15T04:57:39.381Z,85.20
2023-04-15T05:00:08.515Z,85.54
2023-04-15T05:02:35.417Z,85.02
2023-04-15T05:05:01.986Z,85.43
2023-04-15T05:07:28.475Z,86.12
2023-04-15T05:09:54.891Z,84.99
2023-04-15T05:12:21.580Z,85.36
2023-04-15T05:14:47.984Z,85.30
2023-04-15T05:17:14.470Z,85.12
2023-04-15T05:19:41.089Z,85.57
2023-04-15T05:22:07.880Z,85.49
2023-04-15T05:24:34.266Z,85.64
2023-04-15T05:27:02.512Z,85.65
2023-04-15T05:29:28.928Z,85.67
2023-04-15T05:31:55.917Z,85.43
2023-04-15T05:34:23.030Z,85.22
2023-04-15T05:36:49.473Z,84.96
2023-04-15T05:39:16.145Z,84.66
2023-04-15T05:41:42.520Z,84.96
2023-04-15T05:44:08.929Z,84.05
2023-04-15T05:46:35.463Z,83.27
2023-04-15T05:49:05.291Z,83.40
2023-04-15T05:51:31.728Z,82.82
2023-04-15T05:53:58.106Z,82.10
2023-04-15T05:56:26.742Z,81.49
2023-04-15T05:58:53.915Z,80.58
2023-04-15T06:01:20.680Z,79.51
2023-04-15T06:03:47.269Z,78.93
2023-04-15T06:06:14.311Z,78.50
2023-04-15T06:08:40.998Z,78.30
2023-04-15T06:11:07.433Z,77.54
2023-04-15T06:13:34.889Z,77.91
2023-04-15T06:16:01.614Z,77.80
2023-04-15T06:18:28.073Z,77.78
2023-04-15T06:20:54.625Z,77.31
2023-04-15T06:23:21.098Z,77.12
2023-04-15T06:25:47.528Z,77.32
2023-04-15T06:28:13.967Z,76.28
2023-04-15T06:30:40.406Z,76.74
2023-04-15T06:33:07.411Z,76.12
2023-04-15T06:35:33.950Z,75.91
2023-04-15T06:38:00.308Z,75.30
2023-04-15T06:40:26.927Z,75.17
2023-04-15T06:42:53.356Z,74.01
2023-04-15T06:45:19.801Z,74.82
2023-04-15T06:47:46.583Z,74.15
2023-04-15T06:50:13.495Z,73.00
2023-04-15T06:52:40.896Z,72.50
2023-04-15T06:55:07.960Z,71.88
2023-04-15T06:57:35.182Z,71.89
2023-04-15T07:00:01.951Z,71.21
2023-04-15T07:02:28.437Z,70.98
2023-04-15T07:04:55.527Z,70.44
2023-04-15T07:07:22.131Z,70.89
2023-04-15T07:09:48.592Z,69.69
2023-04-15T07:12:15.244Z,68.86
2023-04-15T07:14:41.720Z,68.37
2023-04-15T07:17:09.439Z,67.85
2023-04-15T07:19:35.967Z,67.51
2023-04-15T07:22:02.330Z,67.12
2023-04-15T07:24:28.940Z,67.20
2023-04-15T07:26:59.579Z,65.61
2023-04-15T07:29:27.372Z,66.25
2023-04-15T07:31:53.765Z,65.59
2023-04-15T07:34:20.835Z,64.77
2023-04-15T07:36:50.498Z,64.76
2023-04-15T07:39:16.992Z,66.27
2023-04-15T07:41:43.438Z,65.53
2023-04-15T07:44:09.916Z,64.97
2023-04-15T07:46:37.306Z,64.59
2023-04-15T07:49:04.502Z,64.70
2023-04-15T07:51:32.397Z,63.37
2023-04-15T07:53:59.219Z,64.57
2023-04-15T07:56:26.429Z,63.89
2023-04-15T07:58:53.299Z,63.52
2023-04-15T08:01:19.839Z,62.79
2023-04-15T08:03:46.574Z,64.24
2023-04-15T08:06:13.149Z,63.39
2023-04-15T08:08:39.590Z,63.75
2023-04-15T08:11:06.263Z,65.82
2023-04-15T08:13:32.719Z,65.82
2023-04-15T08:16:19.233Z,64.98
2023-04-15T08:18:49.596Z,64.25
2023-04-15T08:21:17.756Z,63.83
2023-04-15T08:23:45.591Z,63.21
2023-04-15T08:26:12.776Z,64.09
2023-04-15T08:28:40.991Z,63.10
2023-04-15T08:31:08.583Z,62.39
2023-04-15T08:33:35.444Z,61.82
2023-04-15T08:36:01.844Z,61.47
2023-04-15T08:38:28.376Z,61.79
2023-04-15T08:40:56.981Z,62.89
2023-04-15T08:43:28.547Z,62.91
2023-04-15T08:45:55.762Z,62.41
2023-04-15T08:48:24.503Z,60.97
2023-04-15T08:50:51.242Z,60.14
2023-04-15T08:53:18.204Z,59.56
2023-04-15T08:55:46.092Z,59.81
2023-04-15T08:58:14.110Z,62.14
2023-04-15T09:00:41.235Z,62.29
2023-04-15T09:03:08.954Z,61.47
2023-04-15T09:05:36.642Z,60.53
2023-04-15T09:08:04.019Z,61.10
2023-04-15T09:10:31.091Z,58.87
2023-04-15T09:12:57.771Z,59.11
2023-04-15T09:15:29.889Z,58.35
2023-04-15T09:17:56.885Z,59.00
2023-04-15T09:20:23.813Z,57.84
2023-04-15T09:22:51.911Z,58.28
2023-04-15T09:25:24.785Z,58.21
2023-04-15T09:27:53.357Z,57.08
2023-04-15T09:30:20.102Z,56.04
2023-04-15T09:33:00.919Z,54.86
2023-04-15T09:35:28.132Z,54.66
2023-04-15T09:38:03.765Z,53.41
2023-04-15T09:40:38.231Z,53.09
2023-04-15T09:43:06.119Z,54.20
2023-04-15T09:45:34.207Z,52.88
2023-04-15T09:48:17.440Z,55.63
2023-04-15T09:50:44.479Z,56.48
2023-04-15T09:53:12.422Z,56.08
2023-04-15T09:55:38.845Z,56.12
2023-04-15T09:58:19.411Z,54.81
2023-04-15T10:00:51.033Z,54.12
2023-04-15T10:03:21.745Z,50.64
2023-04-15T10:05:52.794Z,51.55
2023-04-15T10:08:21.713Z,51.80
2023-04-15T10:10:48.957Z,53.18
2023-04-15T10:13:24.440Z,53.91
2023-04-15T10:15:59.303Z,52.57
2023-04-15T10:18:27.166Z,51.53
2023-04-15T10:20:54.479Z,50.49
2023-04-15T10:23:22.533Z,50.24
2023-04-15T10:25:51.677Z,49.56
2023-04-15T10:28:18.439Z,52.87
2023-04-15T10:30:45.132Z,53.70
2023-04-15T10:33:12.633Z,54.64
2023-04-15T10:35:39.702Z,54.87
2023-04-15T10:38:35.114Z,54.54
2023-04-15T10:41:22.095Z,54.88
2023-04-15T10:43:51.197Z,56.61
2023-04-15T10:46:23.745Z,56.39
2023-04-15T10:48:53.967Z,57.88
2023-04-15T10:51:29.279Z,57.92
2023-04-15T10:54:02.184Z,58.33
2023-04-15T10:56:30.336Z,58.63
2023-04-15T10:58:59.199Z,59.43
2023-04-15T11:01:53.174Z,58.97
2023-04-15T11:04:55.647Z,59.60
2023-04-15T11:07:40.494Z,60.60
2023-04-15T11:10:29.669Z,60.96
2023-04-15T11:13:27.221Z,61.12
2023-04-15T11:15:58.279Z,61.60
2023-04-15T11:18:28.051Z,61.96
2023-04-15T11:20:57.277Z,60.23
2023-04-15T11:23:38.745Z,59.52
2023-04-15T11:26:09.863Z,59.36
2023-04-15T11:28:38.786Z,60.23
2023-04-15T11:31:27.741Z,57.61
2023-04-15T11:33:57.193Z,56.83
2023-04-15T11:36:27.781Z,58.27
2023-04-15T11:38:54.388Z,59.89
2023-04-15T11:41:22.263Z,60.69
2023-04-15T11:43:49.356Z,61.92
2023-04-15T11:46:16.211Z,61.99
2023-04-15T11:48:44.943Z,62.71
2023-04-15T11:51:12.881Z,63.89
2023-04-15T11:53:39.301Z,63.18
2023-04-15T11:56:06.916Z,63.44
2023-04-15T11:58:37.834Z,63.52
2023-04-15T12:01:06.017Z,62.24
2023-04-15T12:03:41.096Z,62.71
2023-04-15T12:06:16.657Z,62.88
2023-04-15T12:08:55.764Z,62.87
2023-04-15T12:11:31.220Z,63.36
2023-04-15T12:14:05.910Z,63.91
2023-04-15T12:16:35.245Z,64.82
2023-04-15T12:19:10.974Z,64.61
2023-04-15T12:21:40.155Z,64.28
2023-04-15T12:24:09.395Z,64.57
2023-04-15T12:26:45.871Z,64.35
2023-04-15T12:29:13.793Z,64.99
2023-04-15T12:31:55.986Z,65.75
2023-04-15T12:34:36.774Z,65.65
2023-04-15T12:37:05.088Z,65.78
2023-04-15T12:39:35.064Z,66.50
2023-04-15T12:42:01.559Z,66.33
2023-04-15T12:44:28.618Z,65.87
2023-04-15T12:46:55.696Z,65.60
2023-04-15T12:49:23.719Z,66.90
2023-04-15T12:51:52.232Z,66.40
2023-04-15T12:54:19.124Z,66.58
2023-04-15T12:56:46.755Z,66.65
2023-04-15T12:59:14.178Z,67.19
2023-04-15T13:01:41.563Z,67.12
2023-04-15T13:04:08.867Z,67.62
2023-04-15T13:06:36.466Z,67.63
2023-04-15T13:09:05.649Z,67.88
2023-04-15T13:11:36.632Z,67.52
2023-04-15T13:14:08.612Z,67.43
2023-04-15T13:16:36.057Z,66.61
2023-04-15T13:19:04.221Z,66.80
2023-04-15T13:21:35.241Z,66.32
2023-04-15T13:24:03.151Z,66.19
2023-04-15T13:26:29.956Z,66.13
2023-04-15T13:28:56.802Z,67.04
2023-04-15T13:31:23.469Z,66.62
2023-04-15T13:33:50.349Z,66.36
2023-04-15T13:36:17.111Z,66.19
2023-04-15T13:38:43.500Z,66.33
2023-04-15T13:41:10.043Z,66.76
2023-04-15T13:43:36.611Z,66.17
2023-04-15T13:46:03.357Z,65.96
2023-04-15T13:48:29.927Z,66.13
2023-04-15T13:50:56.522Z,66.61
2023-04-15T13:53:33.912Z,66.59
2023-04-15T13:56:07.049Z,66.95
2023-04-15T13:58:33.498Z,67.95
2023-04-15T14:01:00.066Z,68.74
2023-04-15T14:03:26.658Z,68.81
2023-04-15T14:05:55.982Z,68.40
2023-04-15T14:08:23.371Z,68.58
2023-04-15T14:10:49.842Z,68.36
2023-04-15T14:13:16.326Z,68.17
2023-04-15T14:15:42.698Z,67.52
2023-04-15T14:18:09.104Z,67.52
2023-04-15T14:20:35.522Z,67.38
2023-04-15T14:23:02.079Z,67.60
2023-04-15T14:25:33.789Z,67.70
2023-04-15T14:28:01.264Z,67.78
2023-04-15T14:30:27.707Z,68.15
2023-04-15T14:32:54.205Z,68.48
2023-04-15T14:35:20.846Z,68.76
2023-04-15T14:37:47.281Z,69.12
2023-04-15T14:40:13.717Z,68.78
2023-04-15T14:42:40.099Z,68.88
2023-04-15T14:45:07.002Z,68.55
2023-04-15T14:47:33.423Z,70.72
2023-04-15T14:49:59.813Z,70.01
2023-04-15T14:52:26.221Z,70.87
2023-04-15T14:54:52.707Z,71.83
2023-04-15T14:57:19.137Z,74.02
2023-04-15T14:59:45.645Z,72.14
2023-04-15T15:02:15.022Z,73.24
2023-04-15T15:04:47.750Z,72.08
2023-04-15T15:07:14.255Z,71.42
2023-04-15T15:09:41.484Z,73.68
2023-04-15T15:12:07.948Z,74.74
2023-04-15T15:14:34.334Z,73.34
2023-04-15T15:17:00.971Z,73.35
2023-04-15T15:19:27.411Z,74.41
2023-04-15T15:21:53.822Z,75.54
2023-04-15T15:24:20.296Z,74.99
2023-04-15T15:26:46.768Z,76.76
2023-04-15T15:29:13.233Z,77.51
2023-04-15T15:31:39.668Z,76.73
2023-04-15T15:34:06.166Z,77.87
2023-04-15T15:36:32.649Z,78.82
2023-04-15T15:38:59.826Z,78.08
2023-04-15T15:41:26.426Z,79.28
2023-04-15T15:43:55.924Z,81.12
2023-04-15T15:46:24.202Z,79.86
2023-04-15T15:48:50.821Z,79.58
2023-04-15T15:51:17.319Z,80.12
2023-04-15T15:53:44.761Z,80.52
2023-04-15T15:56:11.346Z,79.87
2023-04-15T15:58:45.013Z,79.59
2023-04-15T16:01:11.790Z,80.64
2023-04-15T16:03:38.402Z,80.91
2023-04-15T16:06:05.353Z,80.95
2023-04-15T16:08:31.766Z,81.79
2023-04-15T16:10:58.258Z,81.37
2023-04-15T16:13:24.779Z,82.76
2023-04-15T16:15:51.160Z,81.55
2023-04-15T16:18:18.150Z,82.72
2023-04-15T16:20:44.760Z,82.69
2023-04-15T16:23:16.364Z,82.42
2023-04-15T16:25:44.448Z,82.88
2023-04-15T16:28:25.180Z,83.65
2023-04-15T16:30:52.564Z,82.22
2023-04-15T16:33:19.084Z,82.58
2023-04-15T16:35:45.495Z,82.76
2023-04-15T16:38:11.861Z,82.80
2023-04-15T16:40:38.400Z,82.37
2023-04-15T16:43:07.231Z,82.24
2023-04-15T16:45:33.769Z,83.05
2023-04-15T16:48:00.375Z,82.81
2023-04-15T16:50:27.173Z,82.49
2023-04-15T16:52:54.070Z,82.40
2023-04-15T16:55:20.495Z,81.46
2023-04-15T16:58:02.670Z,82.26
2023-04-15T17:00:31.402Z,81.86
2023-04-15T17:02:58.626Z,82.06
2023-04-15T17:05:27.174Z,82.41
2023-04-15T17:07:53.589Z,82.09
2023-04-15T17:10:19.942Z,82.27
2023-04-15T17:12:46.348Z,81.61
2023-04-15T17:15:12.730Z,83.05
2023-04-15T17:17:39.219Z,82.74
2023-04-15T17:20:06.194Z,82.45
2023-04-15T17:22:33.521Z,83.11
2023-04-15T17:24:59.943Z,82.33
2023-04-15T17:27:28.679Z,81.87
2023-04-15T17:29:55.006Z,81.62
2023-04-15T17:32:22.574Z,82.87
2023-04-15T17:34:51.429Z,83.30
2023-04-15T17:37:18.612Z,83.35
2023-04-15T17:39:45.377Z,84.03
2023-04-15T17:42:11.904Z,84.79
2023-04-15T17:44:38.337Z,85.53
2023-04-15T17:47:04.805Z,85.91
2023-04-15T17:49:32.590Z,86.57
2023-04-15T17:51:58.970Z,86.80
2023-04-15T17:54:25.377Z,87.22
2023-04-15T17:56:51.853Z,87.13
2023-04-15T17:59:18.422Z,87.33
2023-04-15T18:01:45.493Z,87.75
2023-04-15T18:04:12.601Z,88.03
2023-04-15T18:06:39.264Z,88.18
2023-04-15T18:09:06.588Z,88.13
2023-04-15T18:11:33.426Z,89.22
2023-04-15T18:13:59.873Z,90.07
2023-04-15T18:16:26.519Z,90.46
2023-04-15T18:18:53.967Z,91.36
2023-04-15T18:21:20.568Z,92.28
2023-04-15T18:23:47.009Z,92.56
2023-04-15T18:26:13.446Z,93.29
2023-04-15T18:28:39.977Z,93.74
2023-04-15T18:31:06.605Z,93.93
2023-04-15T18:33:33.018Z,94.79
2023-04-15T18:35:59.495Z,95.15
2023-04-15T18:38:26.028Z,94.88
2023-04-15T18:40:52.395Z,95.49
2023-04-15T18:43:18.848Z,95.97
2023-04-15T18:45:45.430Z,96.20
2023-04-15T18:48:12.300Z,96.56
2023-04-15T18:50:38.670Z,96.39
2023-04-15T18:53:05.013Z,96.37
2023-04-15T18:55:31.534Z,96.60
2023-04-15T18:58:06.319Z,96.81
2023-04-15T19:00:38.869Z,97.29
2023-04-15T19:03:06.163Z,97.35
2023-04-15T19:05:32.973Z,97.41
2023-04-15T19:07:59.820Z,97.75
2023-04-15T19:10:27.985Z,97.47
2023-04-15T19:12:55.103Z,97.93
2023-04-15T19:15:21.592Z,97.44
2023-04-15T19:17:48.206Z,98.03
2023-04-15T19:20:14.653Z,97.82
2023-04-15T19:22:41.624Z,97.19
2023-04-15T19:25:08.426Z,97.01
2023-04-15T19:27:34.844Z,97.66
2023-04-15T19:30:01.904Z,97.86
2023-04-15T19:32:28.446Z,97.69
2023-04-15T19:34:54.892Z,97.15
2023-04-15T19:37:21.306Z,97.86
2023-04-15T19:39:47.771Z,97.84
2023-04-15T19:42:14.471Z,97.49
2023-04-15T19:44:42.873Z,97.08
2023-04-15T19:47:10.510Z,96.89
2023-04-15T19:49:37.768Z,97.29
2023-04-15T19:52:04.743Z,96.73
2023-04-15T19:54:32.241Z,97.73
2023-04-15T19:56:58.999Z,97.21
2023-04-15T19:59:25.791Z,97.48
2023-04-15T20:01:52.826Z,97.28
2023-04-15T20:04:19.479Z,97.92
2023-04-15T20:06:46.061Z,97.76
2023-04-15T20:09:12.579Z,97.44
2023-04-15T20:12:45.606Z,97.76
2023-04-15T20:14:25.569Z,97.62
2023-04-15T20:16:51.994Z,98.07
2023-04-15T20:19:18.354Z,98.80
2023-04-15T20:21:45.330Z,98.81
2023-04-15T20:24:11.763Z,98.84
2023-04-15T20:26:38.188Z,99.02
2023-04-15T20:29:04.974Z,100.00
2023-04-15T20:31:31.861Z,100.00
2023-04-15T20:33:58.243Z,99.98
2023-04-15T20:36:24.673Z,100.00
2023-04-15T20:38:51.040Z,99.49
2023-04-15T20:41:17.422Z,98.43
2023-04-15T20:43:43.774Z,100.00
2023-04-15T20:46:20.530Z,99.84
2023-04-15T20:48:47.705Z,100.00
2023-04-15T20:51:15.119Z,100.00
2023-04-15T20:53:42.024Z,100.00
2023-04-15T20:56:08.479Z,100.00
2023-04-15T20:58:34.920Z,100.00
2023-04-15T21:01:02.159Z,100.00
2023-04-15T21:03:28.843Z,100.00
2023-04-15T21:05:55.647Z,100.00
2023-04-15T21:08:29.012Z,99.81
2023-04-15T21:10:56.697Z,100.00
2023-04-15T21:13:23.684Z,100.00
2023-04-15T21:15:53.303Z,100.00
2023-04-15T21:18:22.970Z,100.00
2023-04-15T21:20:58.229Z,100.00
2023-04-15T21:23:25.737Z,100.00
2023-04-15T21:25:52.108Z,100.00
2023-04-15T21:28:18.510Z,99.57
2023-04-15T21:30:45.794Z,99.51
2023-04-15T21:33:12.170Z,99.73
2023-04-15T21:35:38.674Z,99.56
2023-04-15T21:38:05.066Z,99.76
2023-04-15T21:40:31.561Z,99.51
2023-04-15T21:42:58.270Z,99.30
2023-04-15T21:45:24.683Z,98.87
2023-04-15T21:48:05.331Z,99.43
2023-04-15T21:50:36.444Z,99.71
2023-04-15T21:53:03.666Z,99.13
2023-04-15T21:55:30.118Z,98.69
2023-04-15T21:57:56.596Z,98.67
2023-04-15T22:00:23.057Z,98.56
2023-04-15T22:02:49.836Z,99.03
2023-04-15T22:05:16.681Z,98.95
2023-04-15T22:07:43.784Z,99.15
2023-04-15T22:10:10.666Z,98.87
2023-04-15T22:12:37.108Z,99.03
2023-04-15T22:15:04.597Z,98.32
2023-04-15T22:17:31.367Z,98.81
2023-04-15T22:19:57.742Z,98.93
2023-04-15T22:22:26.803Z,99.46
2023-04-15T22:25:10.197Z,98.94
2023-04-15T22:27:36.556Z,99.30
2023-04-15T22:30:03.160Z,99.87
2023-04-15T22:32:29.653Z,100.00
2023-04-15T22:34:56.169Z,99.65
2023-04-15T22:37:22.541Z,99.94
2023-04-15T22:39:48.878Z,99.73
2023-04-15T22:42:15.643Z,99.92
2023-04-15T22:44:42.065Z,100.00
2023-04-15T22:47:08.472Z,99.63
2023-04-15T22:49:36.088Z,99.17
2023-04-15T22:52:02.563Z,99.16
2023-04-15T22:54:28.922Z,99.01
2023-04-15T22:56:56.367Z,99.50
2023-04-15T22:59:22.868Z,98.92
2023-04-15T23:01:49.466Z,98.90
2023-04-15T23:04:25.654Z,99.08
2023-04-15T23:06:54.255Z,99.18
2023-04-15T23:09:21.039Z,99.51
2023-04-15T23:11:47.588Z,99.43
2023-04-15T23:14:13.955Z,99.04
2023-04-15T23:16:40.529Z,99.36
2023-04-15T23:19:07.141Z,98.81
2023-04-15T23:21:33.795Z,98.81
2023-04-15T23:24:00.250Z,98.30
2023-04-15T23:26:27.318Z,99.04
2023-04-15T23:28:53.694Z,98.84
2023-04-15T23:31:20.059Z,99.03
2023-04-15T23:33:46.547Z,98.94
2023-04-15T23:36:12.968Z,99.40
2023-04-15T23:38:39.281Z,99.59
2023-04-15T23:41:05.692Z,99.48
2023-04-15T23:43:32.026Z,99.73
2023-04-15T23:45:58.388Z,99.37
2023-04-15T23:48:24.853Z,99.58
2023-04-15T23:50:51.230Z,99.32
2023-04-15T23:53:17.678Z,99.63
2023-04-15T23:55:44.149Z,99.62
2023-04-15T23:58:10.772Z,99.49
